sensor_id;sensor_type;location;lat;lon;timestamp;P1;durP1;ratioP1;P2;durP2;ratioP2
69750;SDS011;57335;52.288;6.056;2024-02-26T00:02:01;8.60;;;3.83;;
69750;SDS011;57335;52.288;6.056;2024-02-26T00:04:28;9.07;;;3.95;;
69750;SDS011;57335;52.288;6.056;2024-02-26T00:06:54;9.73;;;4.15;;
69750;SDS011;57335;52.288;6.056;2024-02-26T00:09:22;9.48;;;3.58;;
69750;SDS011;57335;52.288;6.056;2024-02-26T00:11:49;9.75;;;4.00;;
69750;SDS011;57335;52.288;6.056;2024-02-26T00:14:15;11.65;;;4.43;;
69750;SDS011;57335;52.288;6.056;2024-02-26T00:16:42;11.02;;;4.47;;
69750;SDS011;57335;52.288;6.056;2024-02-26T00:19:09;10.57;;;3.88;;
69750;SDS011;57335;52.288;6.056;2024-02-26T00:21:39;10.13;;;3.92;;
69750;SDS011;57335;52.288;6.056;2024-02-26T00:24:06;11.18;;;4.00;;
69750;SDS011;57335;52.288;6.056;2024-02-26T00:26:33;10.93;;;4.35;;
69750;SDS011;57335;52.288;6.056;2024-02-26T00:29:00;10.70;;;4.35;;
69750;SDS011;57335;52.288;6.056;2024-02-26T00:31:29;11.68;;;4.80;;
69750;SDS011;57335;52.288;6.056;2024-02-26T00:33:56;10.73;;;4.60;;
69750;SDS011;57335;52.288;6.056;2024-02-26T00:36:22;10.38;;;4.18;;
69750;SDS011;57335;52.288;6.056;2024-02-26T00:38:49;10.43;;;4.50;;
69750;SDS011;57335;52.288;6.056;2024-02-26T00:41:19;10.73;;;4.45;;
69750;SDS011;57335;52.288;6.056;2024-02-26T00:43:46;12.27;;;4.68;;
69750;SDS011;57335;52.288;6.056;2024-02-26T00:46:13;12.20;;;5.25;;
69750;SDS011;57335;52.288;6.056;2024-02-26T00:48:39;12.55;;;5.28;;
69750;SDS011;57335;52.288;6.056;2024-02-26T00:51:06;11.35;;;4.38;;
69750;SDS011;57335;52.288;6.056;2024-02-26T00:53:34;11.07;;;4.40;;
69750;SDS011;57335;52.288;6.056;2024-02-26T00:56:00;13.57;;;5.43;;
69750;SDS011;57335;52.288;6.056;2024-02-26T00:58:27;11.38;;;4.68;;
69750;SDS011;57335;52.288;6.056;2024-02-26T01:00:54;10.95;;;4.43;;
69750;SDS011;57335;52.288;6.056;2024-02-26T01:03:21;10.95;;;4.22;;
69750;SDS011;57335;52.288;6.056;2024-02-26T01:05:48;11.55;;;4.57;;
69750;SDS011;57335;52.288;6.056;2024-02-26T01:08:14;13.32;;;5.47;;
69750;SDS011;57335;52.288;6.056;2024-02-26T01:10:41;12.63;;;5.30;;
69750;SDS011;57335;52.288;6.056;2024-02-26T01:13:08;10.57;;;4.50;;
69750;SDS011;57335;52.288;6.056;2024-02-26T01:15:35;13.00;;;4.57;;
69750;SDS011;57335;52.288;6.056;2024-02-26T01:18:01;9.48;;;3.55;;
69750;SDS011;57335;52.288;6.056;2024-02-26T01:20:28;13.45;;;5.65;;
69750;SDS011;57335;52.288;6.056;2024-02-26T01:22:55;11.82;;;4.95;;
69750;SDS011;57335;52.288;6.056;2024-02-26T01:25:21;9.35;;;4.05;;
69750;SDS011;57335;52.288;6.056;2024-02-26T01:27:48;12.52;;;4.60;;
69750;SDS011;57335;52.288;6.056;2024-02-26T01:30:15;14.85;;;5.97;;
69750;SDS011;57335;52.288;6.056;2024-02-26T01:32:43;13.63;;;5.35;;
69750;SDS011;57335;52.288;6.056;2024-02-26T01:35:10;12.60;;;5.55;;
69750;SDS011;57335;52.288;6.056;2024-02-26T01:37:38;12.20;;;4.88;;
69750;SDS011;57335;52.288;6.056;2024-02-26T01:40:05;14.38;;;5.03;;
69750;SDS011;57335;52.288;6.056;2024-02-26T01:42:33;9.05;;;3.33;;
69750;SDS011;57335;52.288;6.056;2024-02-26T01:45:00;11.00;;;4.22;;
69750;SDS011;57335;52.288;6.056;2024-02-26T01:47:27;12.40;;;4.90;;
69750;SDS011;57335;52.288;6.056;2024-02-26T01:49:55;11.02;;;4.05;;
69750;SDS011;57335;52.288;6.056;2024-02-26T01:52:22;14.35;;;6.38;;
69750;SDS011;57335;52.288;6.056;2024-02-26T01:54:49;11.60;;;4.57;;
69750;SDS011;57335;52.288;6.056;2024-02-26T01:57:16;13.65;;;5.35;;
69750;SDS011;57335;52.288;6.056;2024-02-26T01:59:43;13.05;;;5.85;;
69750;SDS011;57335;52.288;6.056;2024-02-26T02:02:10;12.35;;;4.80;;
69750;SDS011;57335;52.288;6.056;2024-02-26T02:04:38;13.68;;;5.70;;
69750;SDS011;57335;52.288;6.056;2024-02-26T02:07:05;10.23;;;4.20;;
69750;SDS011;57335;52.288;6.056;2024-02-26T02:09:32;15.68;;;6.68;;
69750;SDS011;57335;52.288;6.056;2024-02-26T02:11:58;12.20;;;5.20;;
69750;SDS011;57335;52.288;6.056;2024-02-26T02:14:25;12.20;;;4.70;;
69750;SDS011;57335;52.288;6.056;2024-02-26T02:16:52;14.18;;;5.13;;
69750;SDS011;57335;52.288;6.056;2024-02-26T02:19:18;15.32;;;6.18;;
69750;SDS011;57335;52.288;6.056;2024-02-26T02:21:45;13.00;;;4.95;;
69750;SDS011;57335;52.288;6.056;2024-02-26T02:24:12;15.05;;;6.03;;
69750;SDS011;57335;52.288;6.056;2024-02-26T02:26:38;8.57;;;3.35;;
69750;SDS011;57335;52.288;6.056;2024-02-26T02:29:06;11.27;;;4.97;;
69750;SDS011;57335;52.288;6.056;2024-02-26T02:31:33;8.93;;;3.88;;
69750;SDS011;57335;52.288;6.056;2024-02-26T02:34:00;8.77;;;3.53;;
69750;SDS011;57335;52.288;6.056;2024-02-26T02:36:27;12.63;;;4.30;;
69750;SDS011;57335;52.288;6.056;2024-02-26T02:38:54;10.93;;;3.88;;
69750;SDS011;57335;52.288;6.056;2024-02-26T02:41:20;6.00;;;2.58;;
69750;SDS011;57335;52.288;6.056;2024-02-26T02:43:48;12.30;;;4.78;;
69750;SDS011;57335;52.288;6.056;2024-02-26T02:46:14;12.30;;;5.00;;
69750;SDS011;57335;52.288;6.056;2024-02-26T02:48:41;14.18;;;5.15;;
69750;SDS011;57335;52.288;6.056;2024-02-26T02:51:08;9.07;;;3.83;;
69750;SDS011;57335;52.288;6.056;2024-02-26T02:53:35;10.82;;;4.57;;
69750;SDS011;57335;52.288;6.056;2024-02-26T02:56:02;10.75;;;4.80;;
69750;SDS011;57335;52.288;6.056;2024-02-26T02:58:28;16.02;;;5.78;;
69750;SDS011;57335;52.288;6.056;2024-02-26T03:00:55;12.95;;;5.40;;
69750;SDS011;57335;52.288;6.056;2024-02-26T03:03:22;13.85;;;5.65;;
69750;SDS011;57335;52.288;6.056;2024-02-26T03:05:50;14.57;;;5.60;;
69750;SDS011;57335;52.288;6.056;2024-02-26T03:08:17;11.40;;;5.38;;
69750;SDS011;57335;52.288;6.056;2024-02-26T03:10:45;9.90;;;3.67;;
69750;SDS011;57335;52.288;6.056;2024-02-26T03:13:12;13.90;;;5.30;;
69750;SDS011;57335;52.288;6.056;2024-02-26T03:15:38;14.75;;;5.72;;
69750;SDS011;57335;52.288;6.056;2024-02-26T03:18:05;13.45;;;6.20;;
69750;SDS011;57335;52.288;6.056;2024-02-26T03:20:32;15.15;;;6.15;;
69750;SDS011;57335;52.288;6.056;2024-02-26T03:22:59;13.07;;;5.65;;
69750;SDS011;57335;52.288;6.056;2024-02-26T03:25:25;10.45;;;4.07;;
69750;SDS011;57335;52.288;6.056;2024-02-26T03:27:52;13.00;;;5.47;;
69750;SDS011;57335;52.288;6.056;2024-02-26T03:30:18;13.98;;;5.68;;
69750;SDS011;57335;52.288;6.056;2024-02-26T03:32:45;13.80;;;4.70;;
69750;SDS011;57335;52.288;6.056;2024-02-26T03:35:13;13.90;;;6.32;;
69750;SDS011;57335;52.288;6.056;2024-02-26T03:37:40;8.50;;;3.88;;
69750;SDS011;57335;52.288;6.056;2024-02-26T03:40:06;12.35;;;4.88;;
69750;SDS011;57335;52.288;6.056;2024-02-26T03:42:34;14.85;;;6.13;;
69750;SDS011;57335;52.288;6.056;2024-02-26T03:45:00;14.10;;;6.03;;
69750;SDS011;57335;52.288;6.056;2024-02-26T03:47:27;14.02;;;5.68;;
69750;SDS011;57335;52.288;6.056;2024-02-26T03:49:54;14.82;;;5.80;;
69750;SDS011;57335;52.288;6.056;2024-02-26T03:52:20;14.65;;;5.85;;
69750;SDS011;57335;52.288;6.056;2024-02-26T03:54:47;14.60;;;5.32;;
69750;SDS011;57335;52.288;6.056;2024-02-26T03:57:13;8.18;;;3.58;;
69750;SDS011;57335;52.288;6.056;2024-02-26T03:59:40;10.60;;;4.07;;
69750;SDS011;57335;52.288;6.056;2024-02-26T04:02:07;12.55;;;5.38;;
69750;SDS011;57335;52.288;6.056;2024-02-26T04:04:34;12.98;;;5.13;;
69750;SDS011;57335;52.288;6.056;2024-02-26T04:07:01;11.13;;;4.95;;
69750;SDS011;57335;52.288;6.056;2024-02-26T04:09:28;12.85;;;5.38;;
69750;SDS011;57335;52.288;6.056;2024-02-26T04:11:57;13.23;;;5.25;;
69750;SDS011;57335;52.288;6.056;2024-02-26T04:14:23;13.02;;;5.57;;
69750;SDS011;57335;52.288;6.056;2024-02-26T04:16:50;10.20;;;4.25;;
69750;SDS011;57335;52.288;6.056;2024-02-26T04:19:18;8.13;;;3.53;;
69750;SDS011;57335;52.288;6.056;2024-02-26T04:21:45;12.80;;;5.47;;
69750;SDS011;57335;52.288;6.056;2024-02-26T04:24:12;11.35;;;4.53;;
69750;SDS011;57335;52.288;6.056;2024-02-26T04:26:38;12.57;;;5.10;;
69750;SDS011;57335;52.288;6.056;2024-02-26T04:29:05;10.35;;;3.65;;
69750;SDS011;57335;52.288;6.056;2024-02-26T04:31:32;14.88;;;5.50;;
69750;SDS011;57335;52.288;6.056;2024-02-26T04:33:59;14.50;;;5.70;;
69750;SDS011;57335;52.288;6.056;2024-02-26T04:36:26;11.85;;;5.07;;
69750;SDS011;57335;52.288;6.056;2024-02-26T04:38:52;11.82;;;4.65;;
69750;SDS011;57335;52.288;6.056;2024-02-26T04:41:22;11.88;;;5.38;;
69750;SDS011;57335;52.288;6.056;2024-02-26T04:43:48;13.65;;;5.30;;
69750;SDS011;57335;52.288;6.056;2024-02-26T04:46:15;13.00;;;5.25;;
69750;SDS011;57335;52.288;6.056;2024-02-26T04:48:41;11.27;;;4.28;;
69750;SDS011;57335;52.288;6.056;2024-02-26T04:51:08;12.05;;;4.70;;
69750;SDS011;57335;52.288;6.056;2024-02-26T04:53:35;10.43;;;4.07;;
69750;SDS011;57335;52.288;6.056;2024-02-26T04:56:02;11.73;;;4.80;;
69750;SDS011;57335;52.288;6.056;2024-02-26T04:58:28;11.32;;;4.82;;
69750;SDS011;57335;52.288;6.056;2024-02-26T05:00:55;14.40;;;6.30;;
69750;SDS011;57335;52.288;6.056;2024-02-26T05:03:22;15.85;;;5.93;;
69750;SDS011;57335;52.288;6.056;2024-02-26T05:05:49;14.65;;;6.28;;
69750;SDS011;57335;52.288;6.056;2024-02-26T05:08:16;13.70;;;5.72;;
69750;SDS011;57335;52.288;6.056;2024-02-26T05:10:44;12.85;;;5.18;;
69750;SDS011;57335;52.288;6.056;2024-02-26T05:13:11;18.17;;;6.60;;
69750;SDS011;57335;52.288;6.056;2024-02-26T05:15:38;10.68;;;4.85;;
69750;SDS011;57335;52.288;6.056;2024-02-26T05:18:04;16.70;;;6.78;;
69750;SDS011;57335;52.288;6.056;2024-02-26T05:20:32;11.93;;;4.75;;
69750;SDS011;57335;52.288;6.056;2024-02-26T05:23:01;14.55;;;6.22;;
69750;SDS011;57335;52.288;6.056;2024-02-26T05:25:30;17.33;;;6.97;;
69750;SDS011;57335;52.288;6.056;2024-02-26T05:27:57;15.48;;;5.85;;
69750;SDS011;57335;52.288;6.056;2024-02-26T05:30:23;13.55;;;5.78;;
69750;SDS011;57335;52.288;6.056;2024-02-26T05:32:50;12.65;;;5.05;;
69750;SDS011;57335;52.288;6.056;2024-02-26T05:35:17;17.10;;;6.43;;
69750;SDS011;57335;52.288;6.056;2024-02-26T05:37:43;13.23;;;5.47;;
69750;SDS011;57335;52.288;6.056;2024-02-26T05:40:10;14.80;;;6.47;;
69750;SDS011;57335;52.288;6.056;2024-02-26T05:42:37;14.93;;;6.53;;
69750;SDS011;57335;52.288;6.056;2024-02-26T05:45:04;14.63;;;6.07;;
69750;SDS011;57335;52.288;6.056;2024-02-26T05:47:33;15.00;;;6.30;;
69750;SDS011;57335;52.288;6.056;2024-02-26T05:50:00;14.48;;;5.85;;
69750;SDS011;57335;52.288;6.056;2024-02-26T05:52:27;18.08;;;6.65;;
69750;SDS011;57335;52.288;6.056;2024-02-26T05:54:55;16.15;;;6.57;;
69750;SDS011;57335;52.288;6.056;2024-02-26T05:57:22;21.38;;;8.45;;
69750;SDS011;57335;52.288;6.056;2024-02-26T05:59:48;13.73;;;5.10;;
69750;SDS011;57335;52.288;6.056;2024-02-26T06:02:15;21.08;;;7.72;;
69750;SDS011;57335;52.288;6.056;2024-02-26T06:04:42;18.90;;;7.60;;
69750;SDS011;57335;52.288;6.056;2024-02-26T06:07:08;15.15;;;6.22;;
69750;SDS011;57335;52.288;6.056;2024-02-26T06:09:35;19.08;;;7.13;;
69750;SDS011;57335;52.288;6.056;2024-02-26T06:12:02;15.52;;;6.40;;
69750;SDS011;57335;52.288;6.056;2024-02-26T06:14:29;19.25;;;6.95;;
69750;SDS011;57335;52.288;6.056;2024-02-26T06:16:55;14.50;;;5.45;;
69750;SDS011;57335;52.288;6.056;2024-02-26T06:19:22;16.48;;;6.80;;
69750;SDS011;57335;52.288;6.056;2024-02-26T06:21:49;16.50;;;7.22;;
69750;SDS011;57335;52.288;6.056;2024-02-26T06:24:17;14.10;;;5.68;;
69750;SDS011;57335;52.288;6.056;2024-02-26T06:26:44;15.85;;;6.55;;
69750;SDS011;57335;52.288;6.056;2024-02-26T06:29:10;17.05;;;6.80;;
69750;SDS011;57335;52.288;6.056;2024-02-26T06:31:37;16.33;;;6.00;;
69750;SDS011;57335;52.288;6.056;2024-02-26T06:34:03;16.83;;;6.75;;
69750;SDS011;57335;52.288;6.056;2024-02-26T06:36:31;19.17;;;7.78;;
69750;SDS011;57335;52.288;6.056;2024-02-26T06:38:58;13.15;;;5.18;;
69750;SDS011;57335;52.288;6.056;2024-02-26T06:41:25;16.80;;;5.47;;
69750;SDS011;57335;52.288;6.056;2024-02-26T06:43:54;18.65;;;6.90;;
69750;SDS011;57335;52.288;6.056;2024-02-26T06:46:21;17.80;;;6.47;;
69750;SDS011;57335;52.288;6.056;2024-02-26T06:48:48;16.85;;;6.32;;
69750;SDS011;57335;52.288;6.056;2024-02-26T06:51:20;20.98;;;8.05;;
69750;SDS011;57335;52.288;6.056;2024-02-26T06:53:46;14.85;;;6.13;;
69750;SDS011;57335;52.288;6.056;2024-02-26T06:56:13;22.45;;;8.63;;
69750;SDS011;57335;52.288;6.056;2024-02-26T06:58:40;20.55;;;8.20;;
69750;SDS011;57335;52.288;6.056;2024-02-26T07:01:06;23.63;;;7.70;;
69750;SDS011;57335;52.288;6.056;2024-02-26T07:03:34;21.42;;;7.90;;
69750;SDS011;57335;52.288;6.056;2024-02-26T07:06:01;20.35;;;7.28;;
69750;SDS011;57335;52.288;6.056;2024-02-26T07:08:28;24.95;;;9.52;;
69750;SDS011;57335;52.288;6.056;2024-02-26T07:10:55;24.42;;;8.70;;
69750;SDS011;57335;52.288;6.056;2024-02-26T07:13:21;27.05;;;8.93;;
69750;SDS011;57335;52.288;6.056;2024-02-26T07:15:48;19.40;;;6.45;;
69750;SDS011;57335;52.288;6.056;2024-02-26T07:18:15;30.05;;;12.27;;
69750;SDS011;57335;52.288;6.056;2024-02-26T07:20:42;23.50;;;8.40;;
69750;SDS011;57335;52.288;6.056;2024-02-26T07:23:09;18.58;;;7.00;;
69750;SDS011;57335;52.288;6.056;2024-02-26T07:25:35;19.83;;;8.05;;
69750;SDS011;57335;52.288;6.056;2024-02-26T07:28:03;22.63;;;9.07;;
69750;SDS011;57335;52.288;6.056;2024-02-26T07:30:29;25.85;;;9.40;;
69750;SDS011;57335;52.288;6.056;2024-02-26T07:32:56;20.88;;;7.75;;
69750;SDS011;57335;52.288;6.056;2024-02-26T07:35:23;19.65;;;7.93;;
69750;SDS011;57335;52.288;6.056;2024-02-26T07:37:50;23.23;;;8.10;;
69750;SDS011;57335;52.288;6.056;2024-02-26T07:40:16;21.55;;;7.85;;
69750;SDS011;57335;52.288;6.056;2024-02-26T07:42:43;18.98;;;7.20;;
69750;SDS011;57335;52.288;6.056;2024-02-26T07:45:10;17.42;;;6.30;;
69750;SDS011;57335;52.288;6.056;2024-02-26T07:47:37;24.13;;;8.30;;
69750;SDS011;57335;52.288;6.056;2024-02-26T07:50:07;18.95;;;7.13;;
69750;SDS011;57335;52.288;6.056;2024-02-26T07:52:35;17.95;;;7.15;;
69750;SDS011;57335;52.288;6.056;2024-02-26T07:55:02;19.08;;;7.55;;
69750;SDS011;57335;52.288;6.056;2024-02-26T07:57:33;16.95;;;5.75;;
69750;SDS011;57335;52.288;6.056;2024-02-26T08:00:00;15.63;;;5.38;;
69750;SDS011;57335;52.288;6.056;2024-02-26T08:02:28;15.27;;;5.32;;
69750;SDS011;57335;52.288;6.056;2024-02-26T08:04:54;20.05;;;6.78;;
69750;SDS011;57335;52.288;6.056;2024-02-26T08:07:21;17.38;;;5.80;;
69750;SDS011;57335;52.288;6.056;2024-02-26T08:09:48;14.23;;;5.75;;
69750;SDS011;57335;52.288;6.056;2024-02-26T08:12:14;14.13;;;5.68;;
69750;SDS011;57335;52.288;6.056;2024-02-26T08:14:41;15.52;;;5.57;;
69750;SDS011;57335;52.288;6.056;2024-02-26T08:17:09;14.02;;;5.18;;
69750;SDS011;57335;52.288;6.056;2024-02-26T08:19:36;15.68;;;5.75;;
69750;SDS011;57335;52.288;6.056;2024-02-26T08:22:03;18.48;;;6.45;;
69750;SDS011;57335;52.288;6.056;2024-02-26T08:24:30;14.13;;;5.15;;
69750;SDS011;57335;52.288;6.056;2024-02-26T08:26:57;13.25;;;4.88;;
69750;SDS011;57335;52.288;6.056;2024-02-26T08:29:24;10.77;;;4.07;;
69750;SDS011;57335;52.288;6.056;2024-02-26T08:31:50;13.23;;;5.10;;
69750;SDS011;57335;52.288;6.056;2024-02-26T08:34:17;11.75;;;4.25;;
69750;SDS011;57335;52.288;6.056;2024-02-26T08:36:44;15.27;;;6.70;;
69750;SDS011;57335;52.288;6.056;2024-02-26T08:39:11;19.48;;;5.22;;
69750;SDS011;57335;52.288;6.056;2024-02-26T08:41:40;12.45;;;4.82;;
69750;SDS011;57335;52.288;6.056;2024-02-26T08:44:07;12.00;;;4.18;;
69750;SDS011;57335;52.288;6.056;2024-02-26T08:46:33;12.13;;;4.93;;
69750;SDS011;57335;52.288;6.056;2024-02-26T08:49:00;13.02;;;5.35;;
69750;SDS011;57335;52.288;6.056;2024-02-26T08:51:27;13.10;;;5.40;;
69750;SDS011;57335;52.288;6.056;2024-02-26T08:53:54;10.93;;;4.20;;
69750;SDS011;57335;52.288;6.056;2024-02-26T08:56:20;14.57;;;5.18;;
69750;SDS011;57335;52.288;6.056;2024-02-26T08:58:47;16.45;;;5.55;;
69750;SDS011;57335;52.288;6.056;2024-02-26T09:01:20;12.73;;;5.45;;
69750;SDS011;57335;52.288;6.056;2024-02-26T09:03:47;13.00;;;4.78;;
69750;SDS011;57335;52.288;6.056;2024-02-26T09:06:14;12.77;;;4.85;;
69750;SDS011;57335;52.288;6.056;2024-02-26T09:08:41;11.32;;;4.18;;
69750;SDS011;57335;52.288;6.056;2024-02-26T09:11:08;12.15;;;4.97;;
69750;SDS011;57335;52.288;6.056;2024-02-26T09:13:36;12.60;;;5.32;;
69750;SDS011;57335;52.288;6.056;2024-02-26T09:16:03;11.68;;;4.40;;
69750;SDS011;57335;52.288;6.056;2024-02-26T09:18:31;10.10;;;3.90;;
69750;SDS011;57335;52.288;6.056;2024-02-26T09:20:57;12.82;;;5.15;;
69750;SDS011;57335;52.288;6.056;2024-02-26T09:23:24;11.48;;;4.07;;
69750;SDS011;57335;52.288;6.056;2024-02-26T09:25:51;9.15;;;3.28;;
69750;SDS011;57335;52.288;6.056;2024-02-26T09:28:17;13.85;;;5.03;;
69750;SDS011;57335;52.288;6.056;2024-02-26T09:30:44;10.65;;;3.70;;
69750;SDS011;57335;52.288;6.056;2024-02-26T09:33:11;9.10;;;3.80;;
69750;SDS011;57335;52.288;6.056;2024-02-26T09:35:39;9.10;;;3.65;;
69750;SDS011;57335;52.288;6.056;2024-02-26T09:38:07;11.55;;;4.20;;
69750;SDS011;57335;52.288;6.056;2024-02-26T09:40:34;11.32;;;4.25;;
69750;SDS011;57335;52.288;6.056;2024-02-26T09:43:01;10.63;;;3.70;;
69750;SDS011;57335;52.288;6.056;2024-02-26T09:45:31;12.65;;;4.85;;
69750;SDS011;57335;52.288;6.056;2024-02-26T09:47:59;10.88;;;4.53;;
69750;SDS011;57335;52.288;6.056;2024-02-26T09:50:29;15.65;;;5.03;;
69750;SDS011;57335;52.288;6.056;2024-02-26T09:52:55;12.20;;;5.03;;
69750;SDS011;57335;52.288;6.056;2024-02-26T09:55:25;12.75;;;4.07;;
69750;SDS011;57335;52.288;6.056;2024-02-26T09:57:52;9.48;;;4.13;;
69750;SDS011;57335;52.288;6.056;2024-02-26T10:00:20;9.52;;;4.03;;
69750;SDS011;57335;52.288;6.056;2024-02-26T10:02:48;9.40;;;3.75;;
69750;SDS011;57335;52.288;6.056;2024-02-26T10:05:18;10.35;;;4.68;;
69750;SDS011;57335;52.288;6.056;2024-02-26T10:07:48;12.38;;;4.38;;
69750;SDS011;57335;52.288;6.056;2024-02-26T10:10:15;10.20;;;3.85;;
69750;SDS011;57335;52.288;6.056;2024-02-26T10:12:44;11.57;;;4.30;;
69750;SDS011;57335;52.288;6.056;2024-02-26T10:15:10;10.73;;;4.05;;
69750;SDS011;57335;52.288;6.056;2024-02-26T10:17:37;9.68;;;4.47;;
69750;SDS011;57335;52.288;6.056;2024-02-26T10:20:15;11.48;;;4.50;;
69750;SDS011;57335;52.288;6.056;2024-02-26T10:22:48;13.07;;;4.55;;
69750;SDS011;57335;52.288;6.056;2024-02-26T10:25:16;11.65;;;4.15;;
69750;SDS011;57335;52.288;6.056;2024-02-26T10:27:45;10.25;;;4.40;;
69750;SDS011;57335;52.288;6.056;2024-02-26T10:30:21;12.35;;;4.63;;
69750;SDS011;57335;52.288;6.056;2024-02-26T10:32:49;11.50;;;4.35;;
69750;SDS011;57335;52.288;6.056;2024-02-26T10:35:17;13.20;;;5.32;;
69750;SDS011;57335;52.288;6.056;2024-02-26T10:37:45;11.82;;;4.57;;
69750;SDS011;57335;52.288;6.056;2024-02-26T10:40:13;9.93;;;3.92;;
69750;SDS011;57335;52.288;6.056;2024-02-26T10:42:40;10.98;;;4.57;;
69750;SDS011;57335;52.288;6.056;2024-02-26T10:45:08;11.88;;;4.35;;
69750;SDS011;57335;52.288;6.056;2024-02-26T10:47:36;9.32;;;3.25;;
69750;SDS011;57335;52.288;6.056;2024-02-26T10:50:03;10.07;;;4.47;;
69750;SDS011;57335;52.288;6.056;2024-02-26T10:52:32;9.68;;;3.55;;
69750;SDS011;57335;52.288;6.056;2024-02-26T10:55:04;12.32;;;3.78;;
69750;SDS011;57335;52.288;6.056;2024-02-26T10:57:39;9.00;;;3.75;;
69750;SDS011;57335;52.288;6.056;2024-02-26T11:00:07;14.07;;;5.18;;
69750;SDS011;57335;52.288;6.056;2024-02-26T11:02:37;11.00;;;4.25;;
69750;SDS011;57335;52.288;6.056;2024-02-26T11:05:05;11.15;;;4.30;;
69750;SDS011;57335;52.288;6.056;2024-02-26T11:07:35;10.10;;;4.05;;
69750;SDS011;57335;52.288;6.056;2024-02-26T11:10:04;11.20;;;4.25;;
69750;SDS011;57335;52.288;6.056;2024-02-26T11:12:32;11.10;;;4.13;;
69750;SDS011;57335;52.288;6.056;2024-02-26T11:15:03;13.52;;;4.38;;
69750;SDS011;57335;52.288;6.056;2024-02-26T11:17:30;11.45;;;4.18;;
69750;SDS011;57335;52.288;6.056;2024-02-26T11:19:59;10.18;;;2.90;;
69750;SDS011;57335;52.288;6.056;2024-02-26T11:22:26;11.07;;;3.05;;
69750;SDS011;57335;52.288;6.056;2024-02-26T11:24:53;9.05;;;4.07;;
69750;SDS011;57335;52.288;6.056;2024-02-26T11:27:22;8.70;;;3.20;;
69750;SDS011;57335;52.288;6.056;2024-02-26T11:29:53;9.45;;;3.78;;
69750;SDS011;57335;52.288;6.056;2024-02-26T11:32:21;9.20;;;3.30;;
69750;SDS011;57335;52.288;6.056;2024-02-26T11:34:48;10.77;;;4.05;;
69750;SDS011;57335;52.288;6.056;2024-02-26T11:37:16;8.63;;;3.38;;
69750;SDS011;57335;52.288;6.056;2024-02-26T11:39:45;10.32;;;3.60;;
69750;SDS011;57335;52.288;6.056;2024-02-26T11:42:15;11.45;;;4.10;;
69750;SDS011;57335;52.288;6.056;2024-02-26T11:44:42;9.13;;;3.05;;
69750;SDS011;57335;52.288;6.056;2024-02-26T11:47:13;9.45;;;3.08;;
69750;SDS011;57335;52.288;6.056;2024-02-26T11:49:44;9.73;;;3.78;;
69750;SDS011;57335;52.288;6.056;2024-02-26T11:52:12;10.88;;;4.07;;
69750;SDS011;57335;52.288;6.056;2024-02-26T11:54:44;11.02;;;3.92;;
69750;SDS011;57335;52.288;6.056;2024-02-26T11:57:38;11.05;;;4.78;;
69750;SDS011;57335;52.288;6.056;2024-02-26T12:02:51;10.93;;;3.97;;
69750;SDS011;57335;52.288;6.056;2024-02-26T12:05:26;11.40;;;3.17;;
69750;SDS011;57335;52.288;6.056;2024-02-26T12:08:01;11.35;;;4.00;;
69750;SDS011;57335;52.288;6.056;2024-02-26T12:10:34;13.80;;;3.92;;
69750;SDS011;57335;52.288;6.056;2024-02-26T12:13:06;11.65;;;4.60;;
69750;SDS011;57335;52.288;6.056;2024-02-26T12:18:06;9.75;;;3.85;;
69750;SDS011;57335;52.288;6.056;2024-02-26T12:20:34;10.73;;;4.00;;
69750;SDS011;57335;52.288;6.056;2024-02-26T12:23:01;8.45;;;3.28;;
69750;SDS011;57335;52.288;6.056;2024-02-26T12:25:30;8.18;;;3.13;;
69750;SDS011;57335;52.288;6.056;2024-02-26T12:27:59;14.27;;;4.97;;
69750;SDS011;57335;52.288;6.056;2024-02-26T12:30:26;9.68;;;3.72;;
69750;SDS011;57335;52.288;6.056;2024-02-26T12:32:56;11.25;;;3.80;;
69750;SDS011;57335;52.288;6.056;2024-02-26T12:35:24;8.45;;;3.42;;
69750;SDS011;57335;52.288;6.056;2024-02-26T12:37:51;9.35;;;3.10;;
69750;SDS011;57335;52.288;6.056;2024-02-26T12:40:20;8.85;;;3.75;;
69750;SDS011;57335;52.288;6.056;2024-02-26T12:42:47;10.20;;;3.38;;
69750;SDS011;57335;52.288;6.056;2024-02-26T12:45:14;8.25;;;2.92;;
69750;SDS011;57335;52.288;6.056;2024-02-26T12:47:43;10.55;;;4.07;;
69750;SDS011;57335;52.288;6.056;2024-02-26T12:50:12;13.95;;;4.07;;
69750;SDS011;57335;52.288;6.056;2024-02-26T12:52:39;11.57;;;3.65;;
69750;SDS011;57335;52.288;6.056;2024-02-26T12:55:09;9.77;;;4.40;;
69750;SDS011;57335;52.288;6.056;2024-02-26T12:57:39;10.75;;;3.97;;
69750;SDS011;57335;52.288;6.056;2024-02-26T13:00:11;9.25;;;3.80;;
69750;SDS011;57335;52.288;6.056;2024-02-26T13:02:41;9.80;;;3.65;;
69750;SDS011;57335;52.288;6.056;2024-02-26T13:05:12;10.20;;;4.00;;
69750;SDS011;57335;52.288;6.056;2024-02-26T13:07:41;9.85;;;3.80;;
69750;SDS011;57335;52.288;6.056;2024-02-26T13:10:09;10.57;;;4.25;;
69750;SDS011;57335;52.288;6.056;2024-02-26T13:12:56;8.25;;;3.35;;
69750;SDS011;57335;52.288;6.056;2024-02-26T13:15:23;11.77;;;3.58;;
69750;SDS011;57335;52.288;6.056;2024-02-26T13:17:50;8.35;;;3.15;;
69750;SDS011;57335;52.288;6.056;2024-02-26T13:20:29;11.95;;;3.95;;
69750;SDS011;57335;52.288;6.056;2024-02-26T13:23:01;9.05;;;2.88;;
69750;SDS011;57335;52.288;6.056;2024-02-26T13:25:32;9.93;;;4.15;;
69750;SDS011;57335;52.288;6.056;2024-02-26T13:28:09;10.93;;;3.95;;
69750;SDS011;57335;52.288;6.056;2024-02-26T13:30:39;10.07;;;3.90;;
69750;SDS011;57335;52.288;6.056;2024-02-26T13:33:07;11.88;;;4.28;;
69750;SDS011;57335;52.288;6.056;2024-02-26T13:35:38;10.18;;;3.50;;
69750;SDS011;57335;52.288;6.056;2024-02-26T13:38:06;11.13;;;4.03;;
69750;SDS011;57335;52.288;6.056;2024-02-26T13:40:33;8.32;;;2.92;;
69750;SDS011;57335;52.288;6.056;2024-02-26T13:43:00;12.05;;;4.38;;
69750;SDS011;57335;52.288;6.056;2024-02-26T13:45:27;11.52;;;4.55;;
69750;SDS011;57335;52.288;6.056;2024-02-26T13:48:07;9.65;;;3.92;;
69750;SDS011;57335;52.288;6.056;2024-02-26T13:50:37;10.32;;;3.83;;
69750;SDS011;57335;52.288;6.056;2024-02-26T13:53:04;8.95;;;3.80;;
69750;SDS011;57335;52.288;6.056;2024-02-26T13:55:31;11.00;;;4.32;;
69750;SDS011;57335;52.288;6.056;2024-02-26T13:57:59;8.55;;;2.83;;
69750;SDS011;57335;52.288;6.056;2024-02-26T14:00:27;8.70;;;3.78;;
69750;SDS011;57335;52.288;6.056;2024-02-26T14:02:58;8.23;;;2.90;;
69750;SDS011;57335;52.288;6.056;2024-02-26T14:05:29;8.65;;;2.88;;
69750;SDS011;57335;52.288;6.056;2024-02-26T14:07:56;9.32;;;2.97;;
69750;SDS011;57335;52.288;6.056;2024-02-26T14:10:23;9.23;;;3.58;;
69750;SDS011;57335;52.288;6.056;2024-02-26T14:12:50;7.47;;;3.17;;
69750;SDS011;57335;52.288;6.056;2024-02-26T14:15:17;10.82;;;4.10;;
69750;SDS011;57335;52.288;6.056;2024-02-26T14:17:44;8.00;;;3.00;;
69750;SDS011;57335;52.288;6.056;2024-02-26T14:20:12;9.57;;;3.10;;
69750;SDS011;57335;52.288;6.056;2024-02-26T14:22:39;8.68;;;3.05;;
69750;SDS011;57335;52.288;6.056;2024-02-26T14:25:05;7.20;;;2.38;;
69750;SDS011;57335;52.288;6.056;2024-02-26T14:27:35;8.65;;;3.38;;
69750;SDS011;57335;52.288;6.056;2024-02-26T14:30:02;6.38;;;2.58;;
69750;SDS011;57335;52.288;6.056;2024-02-26T14:32:29;7.63;;;2.75;;
69750;SDS011;57335;52.288;6.056;2024-02-26T14:34:57;10.82;;;3.60;;
69750;SDS011;57335;52.288;6.056;2024-02-26T14:37:24;7.57;;;2.95;;
69750;SDS011;57335;52.288;6.056;2024-02-26T14:39:50;10.20;;;2.92;;
69750;SDS011;57335;52.288;6.056;2024-02-26T14:42:18;7.57;;;2.70;;
69750;SDS011;57335;52.288;6.056;2024-02-26T14:44:48;7.20;;;2.58;;
69750;SDS011;57335;52.288;6.056;2024-02-26T14:47:14;9.07;;;2.92;;